Metar GG30 METAR message from awiacja.imgw.pl Metar G30 EPWA METAR EPWA 181330Z 31010KT 280V340 CAVOK 18/04 Q1027 NOSIG=